createdAt,value
2023-03-22T00:00:57.697Z,0.00
2023-03-22T00:01:57.796Z,0.00
2023-03-22T00:02:58.001Z,0.00
2023-03-22T00:03:58.040Z,0.00
2023-03-22T00:04:58.034Z,0.00
2023-03-22T00:05:58.113Z,0.00
2023-03-22T00:06:58.189Z,0.00
2023-03-22T00:07:58.278Z,0.00
2023-03-22T00:08:58.366Z,0.00
2023-03-22T00:09:58.432Z,0.00
2023-03-22T00:10:58.506Z,0.00
2023-03-22T00:11:58.612Z,0.00
2023-03-22T00:12:58.679Z,0.00
2023-03-22T00:13:58.890Z,0.00
2023-03-22T00:14:58.850Z,0.00
2023-03-22T00:15:58.979Z,0.00
2023-03-22T00:16:59.029Z,0.00
2023-03-22T00:17:59.117Z,0.00
2023-03-22T00:18:59.202Z,0.00
2023-03-22T00:19:59.269Z,0.00
2023-03-22T00:20:59.328Z,0.00
2023-03-22T00:21:59.433Z,0.00
2023-03-22T00:22:59.522Z,0.00
2023-03-22T00:23:59.619Z,0.00
2023-03-22T00:24:59.684Z,0.00
2023-03-22T00:25:59.798Z,0.00
2023-03-22T00:26:59.832Z,0.00
2023-03-22T00:27:59.953Z,0.00
2023-03-22T00:29:00.030Z,0.00
2023-03-22T00:30:00.129Z,0.00
2023-03-22T00:31:00.230Z,0.00
2023-03-22T00:32:00.262Z,0.00
2023-03-22T00:33:00.347Z,0.00
2023-03-22T00:34:00.448Z,0.00
2023-03-22T00:35:00.522Z,0.00
2023-03-22T00:36:00.625Z,0.00
2023-03-22T00:37:00.732Z,0.00
2023-03-22T00:38:00.804Z,0.00
2023-03-22T00:39:00.896Z,0.00
2023-03-22T00:40:00.957Z,0.00
2023-03-22T00:41:01.017Z,0.00
2023-03-22T00:42:01.085Z,0.00
2023-03-22T00:43:01.138Z,0.00
2023-03-22T00:44:01.236Z,0.00
2023-03-22T00:45:01.285Z,0.00
2023-03-22T00:46:01.383Z,0.00
2023-03-22T00:47:01.422Z,0.00
2023-03-22T00:48:01.539Z,0.00
2023-03-22T00:49:01.639Z,0.00
2023-03-22T00:50:01.714Z,0.00
2023-03-22T00:51:01.757Z,0.00
2023-03-22T00:52:01.859Z,0.00
2023-03-22T00:53:01.928Z,0.00
2023-03-22T00:54:02.071Z,0.00
2023-03-22T00:55:02.090Z,0.00
2023-03-22T00:56:02.205Z,0.00
2023-03-22T00:57:02.290Z,0.00
2023-03-22T00:58:02.388Z,0.00
2023-03-22T00:59:02.509Z,0.00
2023-03-22T01:00:02.560Z,0.00
2023-03-22T01:01:02.660Z,0.00
2023-03-22T01:02:02.689Z,0.00
2023-03-22T01:03:02.763Z,0.00
2023-03-22T01:04:02.883Z,0.00
2023-03-22T01:05:02.930Z,0.00
2023-03-22T01:06:03.042Z,0.00
2023-03-22T01:07:03.097Z,0.00
2023-03-22T01:08:03.199Z,0.00
2023-03-22T01:09:03.282Z,0.00
2023-03-22T01:10:03.355Z,0.00
2023-03-22T01:11:03.432Z,0.00
2023-03-22T01:12:03.536Z,0.00
2023-03-22T01:13:03.605Z,0.00
2023-03-22T01:14:03.702Z,0.00
2023-03-22T01:15:03.742Z,0.00
2023-03-22T01:16:03.878Z,0.00
2023-03-22T01:17:03.895Z,0.00
2023-03-22T01:18:03.987Z,0.00
2023-03-22T01:19:04.135Z,0.00
2023-03-22T01:20:04.176Z,0.00
2023-03-22T01:21:04.214Z,0.00
2023-03-22T01:22:04.292Z,0.00
2023-03-22T01:23:04.374Z,0.00
2023-03-22T01:24:04.480Z,0.00
2023-03-22T01:25:04.553Z,0.00
2023-03-22T01:26:04.651Z,0.00
2023-03-22T01:27:04.730Z,0.00
2023-03-22T01:28:04.794Z,0.00
2023-03-22T01:29:04.892Z,0.00
2023-03-22T01:30:04.958Z,0.00
2023-03-22T01:31:05.155Z,0.00
2023-03-22T01:32:05.113Z,0.00
2023-03-22T01:33:05.174Z,0.00
2023-03-22T01:34:05.289Z,0.00
2023-03-22T01:35:05.321Z,0.00
2023-03-22T01:36:05.409Z,0.00
2023-03-22T01:37:05.483Z,0.00
2023-03-22T01:38:05.599Z,0.00
2023-03-22T01:39:05.680Z,0.00
2023-03-22T01:40:05.744Z,0.00
2023-03-22T01:41:05.826Z,0.00
2023-03-22T01:42:05.916Z,0.00
2023-03-22T01:43:05.992Z,0.00
2023-03-22T01:44:06.089Z,0.00
2023-03-22T01:45:06.155Z,0.00
2023-03-22T01:46:06.300Z,0.00
2023-03-22T01:47:06.327Z,0.00
2023-03-22T01:48:06.441Z,0.00
2023-03-22T01:49:06.635Z,0.00
2023-03-22T01:50:06.557Z,0.00
2023-03-22T01:51:06.637Z,0.00
2023-03-22T01:52:06.736Z,0.00
2023-03-22T01:53:06.819Z,0.00
2023-03-22T01:54:06.933Z,0.00
2023-03-22T01:55:06.978Z,0.00
2023-03-22T01:56:07.059Z,0.00
2023-03-22T01:57:07.126Z,0.00
2023-03-22T01:58:07.216Z,0.00
2023-03-22T01:59:07.306Z,0.00
2023-03-22T02:00:07.368Z,0.00
2023-03-22T02:01:07.542Z,0.00
2023-03-22T02:02:07.508Z,0.00
2023-03-22T02:03:07.595Z,0.00
2023-03-22T02:04:07.691Z,0.00
2023-03-22T02:05:07.762Z,0.00
2023-03-22T02:06:07.834Z,0.00
2023-03-22T02:07:07.932Z,0.00
2023-03-22T02:08:08.002Z,0.00
2023-03-22T02:09:08.127Z,0.00
2023-03-22T02:10:08.154Z,0.00
2023-03-22T02:11:08.253Z,0.00
2023-03-22T02:12:08.326Z,0.00
2023-03-22T02:13:08.412Z,0.00
2023-03-22T02:14:08.511Z,0.00
2023-03-22T02:15:08.575Z,0.00
2023-03-22T02:16:08.755Z,0.00
2023-03-22T02:17:08.737Z,0.00
2023-03-22T02:18:08.812Z,0.00
2023-03-22T02:19:08.941Z,0.00
2023-03-22T02:20:08.973Z,0.00
2023-03-22T02:21:09.085Z,0.00
2023-03-22T02:22:09.135Z,0.00
2023-03-22T02:23:09.225Z,0.00
2023-03-22T02:24:09.303Z,0.00
2023-03-22T02:25:09.367Z,0.00
2023-03-22T02:26:09.441Z,0.00
2023-03-22T02:27:09.537Z,0.00
2023-03-22T02:28:09.606Z,0.00
2023-03-22T02:29:09.719Z,0.00
2023-03-22T02:30:09.772Z,0.00
2023-03-22T02:31:09.871Z,0.00
2023-03-22T02:32:09.891Z,0.00
2023-03-22T02:33:09.981Z,0.00
2023-03-22T02:34:10.073Z,0.00
2023-03-22T02:35:10.143Z,0.00
2023-03-22T02:36:10.207Z,0.00
2023-03-22T02:37:10.306Z,0.00
2023-03-22T02:38:10.382Z,0.00
2023-03-22T02:39:10.484Z,0.00
2023-03-22T02:40:10.560Z,0.00
2023-03-22T02:41:10.642Z,0.00
2023-03-22T02:42:10.713Z,0.00
2023-03-22T02:43:10.813Z,0.00
2023-03-22T02:44:10.892Z,0.00
2023-03-22T02:45:10.976Z,0.00
2023-03-22T02:46:11.085Z,0.00
2023-03-22T02:47:11.145Z,0.00
2023-03-22T02:48:11.271Z,0.00
2023-03-22T02:49:11.309Z,0.00
2023-03-22T02:50:11.346Z,0.00
2023-03-22T02:51:11.424Z,0.00
2023-03-22T02:52:11.487Z,0.00
2023-03-22T02:53:11.579Z,0.00
2023-03-22T02:54:11.675Z,0.00
2023-03-22T02:55:11.727Z,0.00
2023-03-22T02:56:11.804Z,0.00
2023-03-22T02:57:11.887Z,0.00
2023-03-22T02:58:11.944Z,0.00
2023-03-22T02:59:12.062Z,0.00
2023-03-22T03:00:12.116Z,0.00
2023-03-22T03:01:12.308Z,0.00
2023-03-22T03:02:12.301Z,0.00
2023-03-22T03:03:12.353Z,0.00
2023-03-22T03:04:12.445Z,0.00
2023-03-22T03:05:12.508Z,0.00
2023-03-22T03:06:12.582Z,0.00
2023-03-22T03:07:12.677Z,0.00
2023-03-22T03:08:12.750Z,0.00
2023-03-22T03:09:12.884Z,0.00
2023-03-22T03:10:12.918Z,0.00
2023-03-22T03:11:13.024Z,0.00
2023-03-22T03:12:13.093Z,0.00
2023-03-22T03:13:13.189Z,0.00
2023-03-22T03:14:13.285Z,0.00
2023-03-22T03:15:13.351Z,0.00
2023-03-22T03:16:13.518Z,0.00
2023-03-22T03:17:13.506Z,0.00
2023-03-22T03:18:13.574Z,0.00
2023-03-22T03:19:13.697Z,0.00
2023-03-22T03:20:13.730Z,0.00
2023-03-22T03:21:13.828Z,0.00
2023-03-22T03:22:13.886Z,0.00
2023-03-22T03:23:13.973Z,0.00
2023-03-22T03:24:14.087Z,0.00
2023-03-22T03:25:14.150Z,0.00
2023-03-22T03:26:14.218Z,0.00
2023-03-22T03:27:14.311Z,0.00
2023-03-22T03:28:14.385Z,0.00
2023-03-22T03:29:14.505Z,0.00
2023-03-22T03:30:14.536Z,0.00
2023-03-22T03:31:14.639Z,0.00
2023-03-22T03:32:14.694Z,0.00
2023-03-22T03:33:14.786Z,0.00
2023-03-22T03:34:14.884Z,0.00
2023-03-22T03:35:14.960Z,0.00
2023-03-22T03:36:15.031Z,0.00
2023-03-22T03:37:15.137Z,0.00
2023-03-22T03:38:15.220Z,0.00
2023-03-22T03:39:15.310Z,0.00
2023-03-22T03:40:15.353Z,0.00
2023-03-22T03:41:15.442Z,0.00
2023-03-22T03:42:15.519Z,0.00
2023-03-22T03:43:15.611Z,0.00
2023-03-22T03:44:15.703Z,0.00
2023-03-22T03:45:15.767Z,0.00
2023-03-22T03:46:15.903Z,0.00
2023-03-22T03:47:15.922Z,0.00
2023-03-22T03:48:16.026Z,0.00
2023-03-22T03:49:16.134Z,0.00
2023-03-22T03:50:16.156Z,0.00
2023-03-22T03:51:16.253Z,0.00
2023-03-22T03:52:16.325Z,0.00
2023-03-22T03:53:16.424Z,0.00
2023-03-22T03:54:16.528Z,0.00
2023-03-22T03:55:16.604Z,0.00
2023-03-22T03:56:16.647Z,0.00
2023-03-22T03:57:16.764Z,0.00
2023-03-22T03:58:16.798Z,0.00
2023-03-22T03:59:16.969Z,0.00
2023-03-22T04:00:16.977Z,0.00
2023-03-22T04:01:17.060Z,0.00
2023-03-22T04:02:17.203Z,0.00
2023-03-22T04:03:17.228Z,0.00
2023-03-22T04:04:17.350Z,0.00
2023-03-22T04:05:17.369Z,0.00
2023-03-22T04:06:17.429Z,0.00
2023-03-22T04:07:17.532Z,0.00
2023-03-22T04:08:17.599Z,0.00
2023-03-22T04:09:17.718Z,0.00
2023-03-22T04:10:17.757Z,0.00
2023-03-22T04:11:17.822Z,0.00
2023-03-22T04:12:17.892Z,0.00
2023-03-22T04:13:17.988Z,0.00
2023-03-22T04:14:18.076Z,0.00
2023-03-22T04:15:18.163Z,0.00
2023-03-22T04:16:18.267Z,0.00
2023-03-22T04:17:18.322Z,0.00
2023-03-22T04:18:18.401Z,0.00
2023-03-22T04:19:18.511Z,0.00
2023-03-22T04:20:18.573Z,0.00
2023-03-22T04:21:18.671Z,0.00
2023-03-22T04:22:18.739Z,0.00
2023-03-22T04:23:18.831Z,0.00
2023-03-22T04:24:18.912Z,0.00
2023-03-22T04:25:18.991Z,0.00
2023-03-22T04:26:19.049Z,0.00
2023-03-22T04:27:19.143Z,0.00
2023-03-22T04:28:19.215Z,0.00
2023-03-22T04:29:20.880Z,0.00
2023-03-22T04:30:19.398Z,0.00
2023-03-22T04:31:19.475Z,0.00
2023-03-22T04:32:19.529Z,0.00
2023-03-22T04:33:19.621Z,0.00
2023-03-22T04:34:19.691Z,0.00
2023-03-22T04:35:19.809Z,0.00
2023-03-22T04:36:19.837Z,0.00
2023-03-22T04:37:19.940Z,0.00
2023-03-22T04:38:20.014Z,0.00
2023-03-22T04:39:20.116Z,0.00
2023-03-22T04:40:20.224Z,0.00
2023-03-22T04:41:20.292Z,0.00
2023-03-22T04:42:20.341Z,0.00
2023-03-22T04:43:20.462Z,0.00
2023-03-22T04:44:20.506Z,0.00
2023-03-22T04:45:20.778Z,0.00
2023-03-22T04:46:20.683Z,0.00
2023-03-22T04:47:20.751Z,0.00
2023-03-22T04:48:20.849Z,0.00
2023-03-22T04:49:20.900Z,0.00
2023-03-22T04:50:20.983Z,0.00
2023-03-22T04:51:21.083Z,0.00
2023-03-22T04:52:21.141Z,0.00
2023-03-22T04:53:21.224Z,0.00
2023-03-22T04:54:21.304Z,0.00
2023-03-22T04:55:21.422Z,0.00
2023-03-22T04:56:21.496Z,0.00
2023-03-22T04:57:21.575Z,0.00
2023-03-22T04:58:21.620Z,0.00
2023-03-22T04:59:21.716Z,0.00
2023-03-22T05:00:21.803Z,0.00
2023-03-22T05:01:21.919Z,0.00
2023-03-22T05:02:22.004Z,0.00
2023-03-22T05:03:22.007Z,0.00
2023-03-22T05:04:22.082Z,0.00
2023-03-22T05:05:22.189Z,0.00
2023-03-22T05:06:22.229Z,0.00
2023-03-22T05:07:22.329Z,0.00
2023-03-22T05:08:22.389Z,0.00
2023-03-22T05:09:23.605Z,0.00
2023-03-22T05:10:22.579Z,0.00
2023-03-22T05:11:22.641Z,0.00
2023-03-22T05:12:22.715Z,0.00
2023-03-22T05:13:22.816Z,0.00
2023-03-22T05:14:22.967Z,0.00
2023-03-22T05:15:22.982Z,0.00
2023-03-22T05:16:23.064Z,0.00
2023-03-22T05:17:23.118Z,0.00
2023-03-22T05:18:23.187Z,0.00
2023-03-22T05:19:23.278Z,0.00
2023-03-22T05:20:23.374Z,0.00
2023-03-22T05:21:23.447Z,5.62
2023-03-22T05:22:23.521Z,5.62
2023-03-22T05:23:23.623Z,5.62
2023-03-22T05:24:23.690Z,5.62
2023-03-22T05:25:23.803Z,5.62
2023-03-22T05:26:23.842Z,11.25
2023-03-22T05:27:23.929Z,11.25
2023-03-22T05:28:24.006Z,11.25
2023-03-22T05:29:24.094Z,11.25
2023-03-22T05:30:24.190Z,11.25
2023-03-22T05:31:24.288Z,16.88
2023-03-22T05:32:24.302Z,16.88
2023-03-22T05:33:24.413Z,22.50
2023-03-22T05:34:24.472Z,22.50
2023-03-22T05:35:24.665Z,22.50
2023-03-22T05:36:24.642Z,28.12
2023-03-22T05:37:24.731Z,33.75
2023-03-22T05:38:24.803Z,33.75
2023-03-22T05:39:24.870Z,33.75
2023-03-22T05:40:24.973Z,22.50
2023-03-22T05:41:25.035Z,16.88
2023-03-22T05:42:25.108Z,16.88
2023-03-22T05:43:25.208Z,16.88
2023-03-22T05:44:25.283Z,16.88
2023-03-22T05:45:25.387Z,16.88
2023-03-22T05:46:25.499Z,16.88
2023-03-22T05:47:25.510Z,22.50
2023-03-22T05:48:25.590Z,22.50
2023-03-22T05:49:25.682Z,28.12
2023-03-22T05:50:25.790Z,33.75
2023-03-22T05:51:25.906Z,39.38
2023-03-22T05:52:25.922Z,50.62
2023-03-22T05:53:26.024Z,56.25
2023-03-22T05:54:26.095Z,56.25
2023-03-22T05:55:26.222Z,61.88
2023-03-22T05:56:26.257Z,73.12
2023-03-22T05:57:26.357Z,84.38
2023-03-22T05:58:26.433Z,101.25
2023-03-22T05:59:26.538Z,118.12
2023-03-22T06:00:26.611Z,135.00
2023-03-22T06:01:26.672Z,151.88
2023-03-22T06:02:26.749Z,168.75
2023-03-22T06:03:26.849Z,180.00
2023-03-22T06:04:26.903Z,191.25
2023-03-22T06:05:27.005Z,196.88
2023-03-22T06:06:27.043Z,208.12
2023-03-22T06:07:27.142Z,208.12
2023-03-22T06:08:27.222Z,213.75
2023-03-22T06:09:27.312Z,225.00
2023-03-22T06:10:27.396Z,241.88
2023-03-22T06:11:27.475Z,270.00
2023-03-22T06:12:29.988Z,286.88
2023-03-22T06:13:27.685Z,281.25
2023-03-22T06:14:27.728Z,281.25
2023-03-22T06:15:27.828Z,264.38
2023-03-22T06:16:27.931Z,264.38
2023-03-22T06:17:27.983Z,286.88
2023-03-22T06:18:28.065Z,303.75
2023-03-22T06:19:28.138Z,303.75
2023-03-22T06:20:28.247Z,331.88
2023-03-22T06:21:28.314Z,337.50
2023-03-22T06:22:28.414Z,365.62
2023-03-22T06:23:28.501Z,388.12
2023-03-22T06:24:28.571Z,388.12
2023-03-22T06:25:28.677Z,264.38
2023-03-22T06:26:28.750Z,208.12
2023-03-22T06:27:28.820Z,196.88
2023-03-22T06:28:28.894Z,196.88
2023-03-22T06:29:28.975Z,230.62
2023-03-22T06:30:29.159Z,225.00
2023-03-22T06:31:29.126Z,213.75
2023-03-22T06:32:29.233Z,219.38
2023-03-22T06:33:29.311Z,202.50
2023-03-22T06:34:29.378Z,191.25
2023-03-22T06:35:29.493Z,213.75
2023-03-22T06:36:29.540Z,241.88
2023-03-22T06:37:29.628Z,264.38
2023-03-22T06:38:29.701Z,281.25
2023-03-22T06:39:29.784Z,264.38
2023-03-22T06:40:29.876Z,281.25
2023-03-22T06:41:29.911Z,270.00
2023-03-22T06:42:30.010Z,275.62
2023-03-22T06:43:30.081Z,337.50
2023-03-22T06:44:30.173Z,388.12
2023-03-22T06:45:30.262Z,388.12
2023-03-22T06:46:30.338Z,371.25
2023-03-22T06:47:30.415Z,315.00
2023-03-22T06:48:30.498Z,393.75
2023-03-22T06:49:30.553Z,270.00
2023-03-22T06:50:30.696Z,303.75
2023-03-22T06:51:30.693Z,270.00
2023-03-22T06:52:30.766Z,264.38
2023-03-22T06:53:30.864Z,264.38
2023-03-22T06:54:30.933Z,241.88
2023-03-22T06:55:31.039Z,241.88
2023-03-22T06:56:31.118Z,264.38
2023-03-22T06:57:31.170Z,286.88
2023-03-22T06:58:31.242Z,348.75
2023-03-22T06:59:31.325Z,427.50
2023-03-22T07:00:31.471Z,393.75
2023-03-22T07:01:31.516Z,416.25
2023-03-22T07:02:31.548Z,399.38
2023-03-22T07:03:31.620Z,444.38
2023-03-22T07:04:31.767Z,416.25
2023-03-22T07:05:31.794Z,388.12
2023-03-22T07:06:31.863Z,388.12
2023-03-22T07:07:31.946Z,320.62
2023-03-22T07:08:32.036Z,298.12
2023-03-22T07:09:32.125Z,281.25
2023-03-22T07:10:32.251Z,253.12
2023-03-22T07:11:32.262Z,258.75
2023-03-22T07:12:32.345Z,320.62
2023-03-22T07:13:32.404Z,348.75
2023-03-22T07:14:32.491Z,343.12
2023-03-22T07:15:32.620Z,348.75
2023-03-22T07:16:32.739Z,399.38
2023-03-22T07:17:32.711Z,450.00
2023-03-22T07:18:32.806Z,371.25
2023-03-22T07:19:32.888Z,354.38
2023-03-22T07:20:32.990Z,382.50
2023-03-22T07:21:33.032Z,393.75
2023-03-22T07:22:33.119Z,376.88
2023-03-22T07:23:33.164Z,382.50
2023-03-22T07:24:33.245Z,399.38
2023-03-22T07:25:33.335Z,635.62
2023-03-22T07:26:33.422Z,523.12
2023-03-22T07:27:33.498Z,618.75
2023-03-22T07:28:33.576Z,973.12
2023-03-22T07:29:33.648Z,680.62
2023-03-22T07:30:33.754Z,635.62
2023-03-22T07:31:33.790Z,663.75
2023-03-22T07:32:33.902Z,2075.62
2023-03-22T07:33:33.932Z,2221.88
2023-03-22T07:34:34.046Z,556.88
2023-03-22T07:35:34.142Z,630.00
2023-03-22T07:36:34.219Z,556.88
2023-03-22T07:37:34.296Z,585.00
2023-03-22T07:38:34.390Z,776.25
2023-03-22T07:39:34.470Z,641.25
2023-03-22T07:40:34.611Z,691.88
2023-03-22T07:41:34.661Z,1805.62
2023-03-22T07:42:34.801Z,1873.12
2023-03-22T07:43:47.319Z,2621.25
2023-03-22T07:44:34.945Z,2964.38
2023-03-22T07:45:35.045Z,2761.88
2023-03-22T07:46:35.216Z,1839.38
2023-03-22T07:47:41.072Z,1299.38
2023-03-22T07:48:35.297Z,1231.88
2023-03-22T07:49:35.358Z,978.75
2023-03-22T07:50:35.537Z,1361.25
2023-03-22T07:51:35.506Z,1653.75
2023-03-22T07:52:35.586Z,1721.25
2023-03-22T07:53:35.666Z,1153.12
2023-03-22T07:54:35.756Z,950.62
2023-03-22T07:55:35.849Z,658.12
2023-03-22T07:56:35.903Z,483.75
2023-03-22T07:57:35.984Z,433.12
2023-03-22T07:58:36.137Z,416.25
2023-03-22T07:59:39.209Z,421.88
2023-03-22T08:00:36.245Z,416.25
2023-03-22T08:01:36.377Z,416.25
2023-03-22T08:02:36.445Z,427.50
2023-03-22T08:03:36.464Z,438.75
2023-03-22T08:04:36.550Z,455.62
2023-03-22T08:05:36.622Z,472.50
2023-03-22T08:06:36.726Z,523.12
2023-03-22T08:07:36.777Z,613.12
2023-03-22T08:08:36.897Z,652.50
2023-03-22T08:09:36.932Z,759.38
2023-03-22T08:10:37.145Z,1344.38
2023-03-22T08:11:37.063Z,1378.12
2023-03-22T08:12:37.164Z,1732.50
2023-03-22T08:13:37.238Z,2058.75
2023-03-22T08:14:37.400Z,2227.50
2023-03-22T08:15:37.704Z,2430.00
2023-03-22T08:16:37.544Z,2413.12
2023-03-22T08:17:37.572Z,2058.75
2023-03-22T08:18:37.671Z,2430.00
2023-03-22T08:19:37.721Z,2801.25
2023-03-22T08:20:38.396Z,2750.62
2023-03-22T08:21:37.877Z,2767.50
2023-03-22T08:22:37.951Z,2835.00
2023-03-22T08:23:42.064Z,2148.75
2023-03-22T08:24:38.089Z,2199.38
2023-03-22T08:25:38.174Z,1946.25
2023-03-22T08:26:38.247Z,2126.25
2023-03-22T08:27:38.313Z,1580.62
2023-03-22T08:28:38.409Z,995.62
2023-03-22T08:29:38.501Z,793.12
2023-03-22T08:30:39.026Z,1445.62
2023-03-22T08:31:38.712Z,832.50
2023-03-22T08:32:38.745Z,866.25
2023-03-22T08:33:38.825Z,866.25
2023-03-22T08:34:38.891Z,900.00
2023-03-22T08:35:39.379Z,905.62
2023-03-22T08:36:39.078Z,900.00
2023-03-22T08:37:39.160Z,1023.75
2023-03-22T08:38:39.248Z,1254.38
2023-03-22T08:39:39.330Z,2458.12
2023-03-22T08:40:39.474Z,2660.62
2023-03-22T08:41:39.515Z,2317.50
2023-03-22T08:42:39.572Z,1895.62
2023-03-22T08:43:39.641Z,2115.00
2023-03-22T08:44:39.695Z,2390.62
2023-03-22T08:45:40.258Z,2176.88
2023-03-22T08:46:39.889Z,2154.38
2023-03-22T08:47:40.010Z,2070.00
2023-03-22T08:48:40.043Z,2103.75
2023-03-22T08:49:40.140Z,1895.62
2023-03-22T08:50:40.245Z,2126.25
2023-03-22T08:51:40.352Z,2300.62
2023-03-22T08:52:40.389Z,1940.62
2023-03-22T08:53:40.489Z,1535.62
2023-03-22T08:54:40.551Z,1372.50
2023-03-22T08:55:40.983Z,1350.00
2023-03-22T08:56:40.704Z,1254.38
2023-03-22T08:57:40.796Z,1209.38
2023-03-22T08:58:40.878Z,1248.75
2023-03-22T08:59:41.003Z,1473.75
2023-03-22T09:00:48.724Z,1265.62
2023-03-22T09:01:41.365Z,1355.62
2023-03-22T09:02:41.228Z,1456.88
2023-03-22T09:03:41.321Z,1603.12
2023-03-22T09:04:41.466Z,1485.00
2023-03-22T09:05:41.746Z,1305.00
2023-03-22T09:06:41.563Z,1378.12
2023-03-22T09:07:41.622Z,995.62
2023-03-22T09:08:41.706Z,849.38
2023-03-22T09:09:41.780Z,866.25
2023-03-22T09:10:41.919Z,1113.75
2023-03-22T09:11:41.958Z,1248.75
2023-03-22T09:12:42.046Z,1243.12
2023-03-22T09:13:42.120Z,1085.62
2023-03-22T09:14:42.204Z,1029.38
2023-03-22T09:15:42.654Z,894.38
2023-03-22T09:16:42.344Z,832.50
2023-03-22T09:17:42.436Z,787.50
2023-03-22T09:18:42.536Z,860.62
2023-03-22T09:19:42.631Z,826.88
2023-03-22T09:20:43.314Z,793.12
2023-03-22T09:21:42.800Z,770.62
2023-03-22T09:22:42.885Z,770.62
2023-03-22T09:23:43.001Z,725.62
2023-03-22T09:24:43.067Z,759.38
2023-03-22T09:25:43.179Z,725.62
2023-03-22T09:26:43.231Z,742.50
2023-03-22T09:27:43.316Z,770.62
2023-03-22T09:28:43.429Z,843.75
2023-03-22T09:29:43.457Z,1006.88
2023-03-22T09:30:43.591Z,1586.25
2023-03-22T09:31:43.703Z,2002.50
2023-03-22T09:32:43.701Z,1636.88
2023-03-22T09:33:43.761Z,1715.62
2023-03-22T09:34:43.815Z,1788.75
2023-03-22T09:35:44.035Z,1513.12
2023-03-22T09:36:43.991Z,1783.12
2023-03-22T09:37:44.050Z,1552.50
2023-03-22T09:38:44.110Z,1153.12
2023-03-22T09:39:44.202Z,1040.62
2023-03-22T09:40:44.282Z,1068.75
2023-03-22T09:41:44.367Z,1051.88
2023-03-22T09:42:44.405Z,1102.50
2023-03-22T09:43:44.513Z,1276.88
2023-03-22T09:44:44.561Z,1417.50
2023-03-22T09:45:44.656Z,1665.00
2023-03-22T09:46:44.745Z,1918.12
2023-03-22T09:47:45.627Z,2086.88
2023-03-22T09:48:44.899Z,1963.12
2023-03-22T09:49:53.313Z,1985.62
2023-03-22T09:50:45.053Z,2053.12
2023-03-22T09:51:45.113Z,1794.38
2023-03-22T09:52:45.205Z,1299.38
2023-03-22T09:53:45.293Z,1417.50
2023-03-22T09:54:45.375Z,1440.00
2023-03-22T09:55:45.511Z,1535.62
2023-03-22T09:56:45.559Z,1125.00
2023-03-22T09:57:45.626Z,1080.00
2023-03-22T09:58:45.759Z,1327.50
2023-03-22T09:59:45.781Z,939.38
2023-03-22T10:00:46.030Z,1136.25
2023-03-22T10:01:46.237Z,1372.50
2023-03-22T10:02:46.146Z,1226.25
2023-03-22T10:03:46.198Z,1383.75
2023-03-22T10:04:46.197Z,1316.25
2023-03-22T10:05:46.300Z,1136.25
2023-03-22T10:06:46.344Z,973.12
2023-03-22T10:07:46.448Z,956.25
2023-03-22T10:08:46.526Z,1102.50
2023-03-22T10:09:46.621Z,1085.62
2023-03-22T10:10:46.726Z,1203.75
2023-03-22T10:11:46.800Z,1749.38
2023-03-22T10:12:46.876Z,1080.00
2023-03-22T10:13:46.976Z,1586.25
2023-03-22T10:14:47.023Z,1524.38
2023-03-22T10:15:47.205Z,1333.12
2023-03-22T10:16:47.168Z,866.25
2023-03-22T10:17:47.239Z,1170.00
2023-03-22T10:18:47.352Z,1389.38
2023-03-22T10:19:47.414Z,1316.25
2023-03-22T10:20:47.533Z,1226.25
2023-03-22T10:21:47.576Z,1366.88
2023-03-22T10:22:47.664Z,1102.50
2023-03-22T10:23:47.749Z,900.00
2023-03-22T10:24:47.820Z,1130.62
2023-03-22T10:25:47.982Z,1012.50
2023-03-22T10:26:47.978Z,826.88
2023-03-22T10:27:48.057Z,871.88
2023-03-22T10:28:48.136Z,900.00
2023-03-22T10:29:48.212Z,826.88
2023-03-22T10:30:48.309Z,798.75
2023-03-22T10:31:48.524Z,770.62
2023-03-22T10:32:57.561Z,776.25
2023-03-22T10:33:48.520Z,922.50
2023-03-22T10:34:48.603Z,826.88
2023-03-22T10:35:48.723Z,821.25
2023-03-22T10:36:48.753Z,793.12
2023-03-22T10:37:48.817Z,793.12
2023-03-22T10:38:48.924Z,815.62
2023-03-22T10:39:48.997Z,838.12
2023-03-22T10:40:49.122Z,860.62
2023-03-22T10:41:49.152Z,843.75
2023-03-22T10:42:49.236Z,860.62
2023-03-22T10:43:49.286Z,849.38
2023-03-22T10:44:49.378Z,888.75
2023-03-22T10:45:49.439Z,877.50
2023-03-22T10:46:49.518Z,832.50
2023-03-22T10:47:49.598Z,843.75
2023-03-22T10:48:49.686Z,871.88
2023-03-22T10:49:49.728Z,860.62
2023-03-22T10:50:49.819Z,815.62
2023-03-22T10:51:49.891Z,815.62
2023-03-22T10:52:49.996Z,798.75
2023-03-22T10:53:50.049Z,798.75
2023-03-22T10:54:50.134Z,759.38
2023-03-22T10:55:50.230Z,748.12
2023-03-22T10:56:50.294Z,736.88
2023-03-22T10:57:50.377Z,731.25
2023-03-22T10:58:50.475Z,731.25
2023-03-22T10:59:50.657Z,731.25
2023-03-22T11:00:50.835Z,720.00
2023-03-22T11:01:50.922Z,708.75
2023-03-22T11:02:50.820Z,703.12
2023-03-22T11:03:50.855Z,691.88
2023-03-22T11:04:50.935Z,680.62
2023-03-22T11:05:51.034Z,669.38
2023-03-22T11:06:51.961Z,663.75
2023-03-22T11:07:51.140Z,652.50
2023-03-22T11:08:51.223Z,646.88
2023-03-22T11:09:51.273Z,641.25
2023-03-22T11:10:51.475Z,635.62
2023-03-22T11:11:51.444Z,624.38
2023-03-22T11:12:51.541Z,607.50
2023-03-22T11:13:51.591Z,585.00
2023-03-22T11:14:51.675Z,568.12
2023-03-22T11:15:51.760Z,551.25
2023-03-22T11:16:52.383Z,540.00
2023-03-22T11:17:51.868Z,523.12
2023-03-22T11:18:51.967Z,506.25
2023-03-22T11:19:52.196Z,489.38
2023-03-22T11:20:52.228Z,472.50
2023-03-22T11:21:52.202Z,461.25
2023-03-22T11:22:52.304Z,455.62
2023-03-22T11:23:52.352Z,450.00
2023-03-22T11:24:52.448Z,450.00
2023-03-22T11:25:52.525Z,455.62
2023-03-22T11:26:52.588Z,461.25
2023-03-22T11:27:52.642Z,466.88
2023-03-22T11:28:52.743Z,461.25
2023-03-22T11:29:52.802Z,450.00
2023-03-22T11:30:52.900Z,433.12
2023-03-22T11:31:55.636Z,421.88
2023-03-22T11:32:53.094Z,405.00
2023-03-22T11:33:53.126Z,393.75
2023-03-22T11:34:53.229Z,388.12
2023-03-22T11:35:53.361Z,382.50
2023-03-22T11:36:53.429Z,382.50
2023-03-22T11:37:53.504Z,382.50
2023-03-22T11:38:53.581Z,388.12
2023-03-22T11:39:53.653Z,388.12
2023-03-22T11:40:53.782Z,393.75
2023-03-22T11:41:53.833Z,399.38
2023-03-22T11:42:53.931Z,410.62
2023-03-22T11:43:54.310Z,427.50
2023-03-22T11:44:54.086Z,433.12
2023-03-22T11:45:54.221Z,450.00
2023-03-22T11:46:54.238Z,455.62
2023-03-22T11:47:54.380Z,455.62
2023-03-22T11:48:54.462Z,444.38
2023-03-22T11:49:54.481Z,438.75
2023-03-22T11:50:54.578Z,438.75
2023-03-22T11:51:54.622Z,433.12
2023-03-22T11:52:54.706Z,421.88
2023-03-22T11:53:54.781Z,416.25
2023-03-22T11:54:54.880Z,416.25
2023-03-22T11:55:54.967Z,416.25
2023-03-22T11:56:55.071Z,427.50
2023-03-22T11:57:55.146Z,427.50
2023-03-22T11:58:55.249Z,421.88
2023-03-22T11:59:55.321Z,416.25
2023-03-22T12:00:55.500Z,410.62
2023-03-22T12:01:55.501Z,405.00
2023-03-22T12:02:55.769Z,399.38
2023-03-22T12:03:55.943Z,399.38
2023-03-22T12:04:55.851Z,399.38
2023-03-22T12:05:55.930Z,405.00
2023-03-22T12:06:55.985Z,405.00
2023-03-22T12:07:56.061Z,405.00
2023-03-22T12:08:56.129Z,393.75
2023-03-22T12:09:57.160Z,393.75
2023-03-22T12:10:56.318Z,393.75
2023-03-22T12:11:56.353Z,393.75
2023-03-22T12:12:56.472Z,388.12
2023-03-22T12:13:56.533Z,388.12
2023-03-22T12:14:56.631Z,388.12
2023-03-22T12:15:56.799Z,376.88
2023-03-22T12:16:56.808Z,354.38
2023-03-22T12:17:56.987Z,337.50
2023-03-22T12:18:56.992Z,315.00
2023-03-22T12:19:57.076Z,298.12
2023-03-22T12:20:57.201Z,292.50
2023-03-22T12:21:57.236Z,286.88
2023-03-22T12:22:57.316Z,286.88
2023-03-22T12:23:57.404Z,281.25
2023-03-22T12:24:57.506Z,286.88
2023-03-22T12:25:57.580Z,292.50
2023-03-22T12:26:57.660Z,303.75
2023-03-22T12:27:57.735Z,320.62
2023-03-22T12:28:57.839Z,337.50
2023-03-22T12:29:57.902Z,348.75
2023-03-22T12:30:58.109Z,360.00
2023-03-22T12:31:58.159Z,371.25
2023-03-22T12:32:58.219Z,376.88
2023-03-22T12:33:58.266Z,365.62
2023-03-22T12:35:14.114Z,354.38
2023-03-22T12:35:58.483Z,337.50
2023-03-22T12:36:58.541Z,315.00
2023-03-22T12:37:58.623Z,298.12
2023-03-22T12:38:58.738Z,281.25
2023-03-22T12:39:58.799Z,264.38
2023-03-22T12:40:58.929Z,253.12
2023-03-22T12:41:58.933Z,247.50
2023-03-22T12:43:00.350Z,253.12
2023-03-22T12:43:59.095Z,258.75
2023-03-22T12:45:05.225Z,264.38
2023-03-22T12:45:59.266Z,270.00
2023-03-22T12:46:59.428Z,270.00
2023-03-22T12:47:59.548Z,275.62